createdAt,value
2022-11-04T00:01:46.693Z,0.33
2022-11-04T00:04:15.769Z,0.40
2022-11-04T00:06:43.726Z,0.40
2022-11-04T00:09:13.578Z,0.30
2022-11-04T00:12:24.817Z,0.40
2022-11-04T00:14:52.615Z,0.30
2022-11-04T00:17:20.490Z,0.60
2022-11-04T00:20:13.238Z,0.50
2022-11-04T00:23:01.093Z,0.27
2022-11-04T00:25:47.271Z,0.30
2022-11-04T00:28:35.398Z,0.40
2022-11-04T00:31:23.678Z,0.30
2022-11-04T00:33:52.485Z,0.43
2022-11-04T00:36:20.330Z,0.30
2022-11-04T00:38:48.150Z,0.30
2022-11-04T00:41:28.426Z,0.23
2022-11-04T00:44:01.222Z,0.50
2022-11-04T00:46:30.098Z,0.20
2022-11-04T00:48:57.915Z,0.30
2022-11-04T00:51:25.721Z,0.33
2022-11-04T00:53:53.569Z,0.50
2022-11-04T00:56:21.348Z,0.30
2022-11-04T00:58:50.726Z,0.10
2022-11-04T01:01:19.035Z,0.40
2022-11-04T01:03:51.037Z,0.20
2022-11-04T01:06:19.176Z,0.30
2022-11-04T01:08:46.969Z,0.27
2022-11-04T01:11:14.851Z,0.30
2022-11-04T01:13:42.840Z,0.30
2022-11-04T01:16:11.592Z,0.30
2022-11-04T01:18:39.504Z,0.20
2022-11-04T01:21:08.057Z,0.20
2022-11-04T01:23:36.006Z,0.20
2022-11-04T01:26:07.482Z,0.27
2022-11-04T01:28:35.306Z,0.20
2022-11-04T01:31:20.174Z,0.30
2022-11-04T01:33:49.025Z,0.30
2022-11-04T01:36:17.098Z,0.30
2022-11-04T01:38:45.117Z,0.10
2022-11-04T01:41:26.660Z,0.30
2022-11-04T01:44:05.364Z,0.20
2022-11-04T01:46:47.700Z,0.77
2022-11-04T01:49:37.895Z,0.40
2022-11-04T01:52:14.617Z,0.13
2022-11-04T01:54:42.646Z,0.30
2022-11-04T01:57:14.882Z,0.20
2022-11-04T01:59:43.007Z,0.30
2022-11-04T02:02:10.997Z,0.20
2022-11-04T02:04:39.433Z,0.30
2022-11-04T02:07:08.704Z,0.30
2022-11-04T02:09:37.341Z,0.20
2022-11-04T02:12:23.776Z,0.30
2022-11-04T02:14:51.610Z,0.20
2022-11-04T02:17:19.273Z,0.30
2022-11-04T02:20:17.635Z,0.50
2022-11-04T02:23:00.576Z,0.27
2022-11-04T02:25:46.999Z,0.30
2022-11-04T02:28:26.836Z,0.13
2022-11-04T02:30:58.095Z,0.30
2022-11-04T02:33:51.827Z,0.17
2022-11-04T02:36:50.269Z,0.20
2022-11-04T02:39:32.121Z,0.20
2022-11-04T02:42:28.955Z,0.30
2022-11-04T02:45:09.762Z,0.30
2022-11-04T02:47:38.196Z,0.13
2022-11-04T02:50:16.448Z,0.10
2022-11-04T02:53:01.462Z,0.77
2022-11-04T02:55:56.413Z,0.20
2022-11-04T02:58:30.980Z,0.33
2022-11-04T03:00:58.991Z,0.43
2022-11-04T03:03:28.160Z,0.20
2022-11-04T03:05:56.401Z,0.20
2022-11-04T03:08:39.294Z,0.30
2022-11-04T03:11:13.229Z,0.23
2022-11-04T03:14:00.375Z,0.37
2022-11-04T03:16:37.567Z,0.30
2022-11-04T03:19:08.144Z,0.30
2022-11-04T03:21:38.527Z,0.20
2022-11-04T03:24:06.563Z,0.50
2022-11-04T03:26:43.250Z,0.30
2022-11-04T03:29:32.550Z,0.30
2022-11-04T03:32:05.771Z,0.40
2022-11-04T03:34:33.639Z,0.30
2022-11-04T03:37:01.380Z,0.37
2022-11-04T03:39:29.133Z,0.50
2022-11-04T03:41:58.217Z,0.33
2022-11-04T03:44:26.192Z,0.37
2022-11-04T03:46:54.966Z,0.30
2022-11-04T03:49:23.662Z,0.40
2022-11-04T03:51:54.326Z,0.30
2022-11-04T03:54:22.141Z,0.37
2022-11-04T03:57:17.952Z,0.40
2022-11-04T03:59:45.541Z,0.50
2022-11-04T04:02:57.165Z,0.40
2022-11-04T04:05:32.249Z,0.33
2022-11-04T04:08:12.088Z,0.50
2022-11-04T04:11:17.475Z,0.50
2022-11-04T04:14:06.392Z,0.50
2022-11-04T04:16:36.209Z,0.40
2022-11-04T04:19:22.194Z,0.40
2022-11-04T04:22:02.652Z,0.60
2022-11-04T04:24:53.285Z,0.60
2022-11-04T04:27:33.620Z,1.00
2022-11-04T04:30:19.949Z,0.80
2022-11-04T04:32:53.164Z,0.80
2022-11-04T04:35:43.754Z,0.60
2022-11-04T04:38:46.397Z,0.57
2022-11-04T04:41:51.117Z,0.50
2022-11-04T04:44:44.997Z,0.50
2022-11-04T04:47:21.060Z,0.50
2022-11-04T04:49:55.731Z,0.60
2022-11-04T04:52:23.728Z,0.50
2022-11-04T04:54:51.522Z,0.70
2022-11-04T04:57:19.305Z,0.50
2022-11-04T04:59:47.046Z,0.50
2022-11-04T05:02:14.980Z,1.03
2022-11-04T05:04:42.876Z,0.50
2022-11-04T05:07:11.217Z,0.50
2022-11-04T05:09:39.028Z,0.30
2022-11-04T05:12:07.045Z,0.50
2022-11-04T05:14:34.801Z,0.97
2022-11-04T05:17:02.586Z,0.60
2022-11-04T05:19:30.362Z,0.53
2022-11-04T05:21:58.170Z,0.50
2022-11-04T05:24:25.964Z,0.50
2022-11-04T05:26:53.790Z,0.40
2022-11-04T05:29:21.602Z,0.50
2022-11-04T05:31:49.463Z,0.50
2022-11-04T05:34:17.238Z,0.50
2022-11-04T05:36:45.022Z,0.60
2022-11-04T05:39:14.388Z,0.60
2022-11-04T05:41:42.262Z,0.60
2022-11-04T05:44:10.778Z,0.80
2022-11-04T05:46:38.580Z,0.60
2022-11-04T05:49:06.682Z,0.80
2022-11-04T05:51:34.604Z,0.70
2022-11-04T05:54:02.867Z,0.60
2022-11-04T05:56:30.697Z,0.90
2022-11-04T05:58:58.476Z,0.70
2022-11-04T06:01:30.273Z,0.60
2022-11-04T06:03:58.711Z,0.63
2022-11-04T06:06:27.064Z,0.80
2022-11-04T06:08:55.115Z,0.60
2022-11-04T06:11:23.128Z,0.40
2022-11-04T06:13:51.076Z,0.50
2022-11-04T06:16:18.837Z,0.50
2022-11-04T06:18:46.695Z,0.73
2022-11-04T06:21:14.416Z,0.70
2022-11-04T06:23:45.527Z,0.83
2022-11-04T06:26:13.681Z,0.60
2022-11-04T06:28:42.060Z,0.90
2022-11-04T06:31:10.626Z,0.90
2022-11-04T06:33:38.389Z,3.93
2022-11-04T06:36:07.377Z,6.47
2022-11-04T06:38:36.456Z,6.67
2022-11-04T06:43:33.297Z,3.27
2022-11-04T06:46:02.457Z,3.77
2022-11-04T06:48:31.873Z,2.97
2022-11-04T06:51:00.516Z,2.00
2022-11-04T06:53:28.874Z,1.03
2022-11-04T06:56:03.163Z,1.00
2022-11-04T06:58:31.042Z,0.60
2022-11-04T07:00:58.921Z,0.63
2022-11-04T07:03:26.715Z,0.70
2022-11-04T07:05:54.572Z,0.80
2022-11-04T07:08:22.363Z,0.70
2022-11-04T07:10:50.081Z,0.83
2022-11-04T07:13:18.826Z,0.60
2022-11-04T07:15:46.776Z,1.00
2022-11-04T07:18:14.532Z,0.60
2022-11-04T07:20:42.326Z,0.73
2022-11-04T07:23:10.044Z,0.70
2022-11-04T07:25:37.873Z,0.90
2022-11-04T07:28:06.848Z,0.90
2022-11-04T07:30:34.655Z,0.80
2022-11-04T07:33:02.431Z,0.70
2022-11-04T07:35:30.186Z,0.70
2022-11-04T07:37:57.930Z,0.80
2022-11-04T07:40:25.684Z,0.80
2022-11-04T07:42:53.417Z,0.80
2022-11-04T07:45:21.214Z,0.70
2022-11-04T07:47:49.015Z,0.80
2022-11-04T07:50:16.805Z,1.03
2022-11-04T07:52:44.681Z,1.07
2022-11-04T07:55:15.053Z,0.90
2022-11-04T07:57:42.810Z,0.70
2022-11-04T08:00:11.355Z,0.90
2022-11-04T08:02:39.277Z,0.90
2022-11-04T08:05:07.671Z,0.83
2022-11-04T08:07:35.504Z,0.80
2022-11-04T08:10:03.769Z,1.40
2022-11-04T08:12:33.413Z,1.43
2022-11-04T08:15:01.342Z,1.10
2022-11-04T08:17:29.119Z,1.13
2022-11-04T08:19:56.991Z,0.77
2022-11-04T08:22:27.616Z,0.53
2022-11-04T08:24:59.643Z,0.70
2022-11-04T08:27:27.471Z,0.90
2022-11-04T08:29:55.232Z,0.63
2022-11-04T08:32:23.043Z,0.97
2022-11-04T08:34:50.927Z,1.00
2022-11-04T08:37:19.463Z,0.80
2022-11-04T08:39:47.420Z,0.90
2022-11-04T08:42:15.196Z,0.93
2022-11-04T08:44:44.059Z,0.80
2022-11-04T08:47:11.899Z,0.70
2022-11-04T08:49:43.187Z,0.80
2022-11-04T08:52:11.268Z,0.70
2022-11-04T08:54:38.984Z,0.80
2022-11-04T08:57:06.985Z,0.80
2022-11-04T08:59:34.794Z,0.83
2022-11-04T09:02:02.551Z,0.63
2022-11-04T09:04:30.368Z,0.83
2022-11-04T09:06:59.246Z,0.90
2022-11-04T09:09:27.064Z,0.80
2022-11-04T09:11:55.412Z,0.90
2022-11-04T09:14:24.937Z,0.70
2022-11-04T09:16:52.708Z,0.70
2022-11-04T09:19:20.466Z,0.73
2022-11-04T09:21:48.226Z,0.80
2022-11-04T09:24:16.173Z,0.80
2022-11-04T09:26:45.874Z,0.70
2022-11-04T09:29:13.592Z,1.20
2022-11-04T09:31:41.679Z,0.80
2022-11-04T09:34:09.432Z,0.90
2022-11-04T09:36:37.232Z,0.63
2022-11-04T09:39:05.676Z,0.80
2022-11-04T09:41:55.311Z,0.97
2022-11-04T09:44:24.849Z,0.60
2022-11-04T09:46:54.056Z,0.60
2022-11-04T09:49:21.978Z,0.70
2022-11-04T09:51:54.897Z,0.60
2022-11-04T09:54:25.739Z,0.47
2022-11-04T09:56:54.247Z,0.50
2022-11-04T09:59:30.272Z,0.50
2022-11-04T10:02:01.450Z,0.70
2022-11-04T10:04:47.792Z,0.50
2022-11-04T10:07:32.517Z,0.40
2022-11-04T10:10:12.325Z,0.50
2022-11-04T10:12:54.765Z,0.67
2022-11-04T10:15:41.421Z,0.97
2022-11-04T10:18:30.611Z,0.50
2022-11-04T10:21:23.620Z,0.53
2022-11-04T10:24:05.459Z,0.70
2022-11-04T10:26:53.755Z,1.30
2022-11-04T10:29:32.126Z,0.90
2022-11-04T10:31:59.917Z,1.20
2022-11-04T10:34:40.854Z,0.90
2022-11-04T10:37:11.831Z,0.80
2022-11-04T10:39:43.550Z,1.00
2022-11-04T10:42:13.719Z,0.60
2022-11-04T10:44:41.552Z,0.67
2022-11-04T10:47:17.989Z,0.60
2022-11-04T10:50:26.615Z,0.93
2022-11-04T10:52:43.659Z,0.83
2022-11-04T10:55:28.050Z,0.80
2022-11-04T10:57:59.137Z,0.80
2022-11-04T11:00:35.080Z,0.80
2022-11-04T11:03:02.950Z,0.77
2022-11-04T11:05:30.768Z,0.60
2022-11-04T11:07:59.640Z,0.67
2022-11-04T11:10:30.224Z,0.90
2022-11-04T11:12:59.032Z,0.67
2022-11-04T11:15:27.360Z,0.60
2022-11-04T11:18:01.113Z,0.57
2022-11-04T11:20:28.992Z,0.60
2022-11-04T11:23:03.534Z,0.47
2022-11-04T11:25:32.943Z,0.40
2022-11-04T11:28:26.768Z,0.80
2022-11-04T11:31:05.413Z,0.40
2022-11-04T11:33:37.486Z,0.70
2022-11-04T11:36:15.867Z,0.93
2022-11-04T11:39:06.989Z,0.60
2022-11-04T11:41:40.986Z,0.40
2022-11-04T11:44:39.782Z,0.90
2022-11-04T11:47:09.001Z,0.50
2022-11-04T11:49:39.198Z,0.50
2022-11-04T11:52:31.087Z,0.43
2022-11-04T11:55:18.993Z,0.60
2022-11-04T12:01:03.138Z,0.50
2022-11-04T12:09:57.761Z,0.73
2022-11-04T12:12:37.366Z,0.55
2022-11-04T12:15:26.710Z,0.43
2022-11-04T12:17:54.429Z,0.50
2022-11-04T12:21:07.292Z,0.62
2022-11-04T12:23:45.171Z,0.47
2022-11-04T12:26:35.033Z,0.60
2022-11-04T12:29:21.501Z,0.40
2022-11-04T12:32:11.375Z,0.57
2022-11-04T12:35:49.945Z,0.60
2022-11-04T12:38:32.777Z,0.60
2022-11-04T12:42:06.428Z,0.60
2022-11-04T12:44:31.268Z,0.60
2022-11-04T12:47:40.552Z,0.70
2022-11-04T12:50:19.520Z,0.70
2022-11-04T12:52:56.970Z,0.80
2022-11-04T12:55:42.541Z,0.70
2022-11-04T12:58:33.549Z,0.60
2022-11-04T13:01:11.038Z,0.82
2022-11-04T13:03:57.491Z,0.65
2022-11-04T13:06:44.174Z,0.60
2022-11-04T13:09:31.632Z,0.80
2022-11-04T13:12:05.023Z,0.50
2022-11-04T13:14:52.664Z,0.95
2022-11-04T13:17:27.355Z,0.68
2022-11-04T13:19:59.862Z,0.88
2022-11-04T13:22:33.939Z,0.60
2022-11-04T13:25:13.745Z,0.77
2022-11-04T13:27:46.170Z,0.60
2022-11-04T13:30:23.201Z,0.50
2022-11-04T13:32:59.916Z,0.50
2022-11-04T13:35:42.352Z,0.62
2022-11-04T13:38:15.404Z,0.60
2022-11-04T13:41:08.894Z,0.60
2022-11-04T13:43:39.395Z,0.60
2022-11-04T13:46:09.857Z,0.50
2022-11-04T13:48:39.298Z,0.83
2022-11-04T13:51:08.654Z,0.63
2022-11-04T13:53:42.600Z,0.80
2022-11-04T13:56:32.350Z,0.50
2022-11-04T13:59:02.211Z,0.60
2022-11-04T14:01:34.371Z,0.60
2022-11-04T14:04:31.558Z,0.80
2022-11-04T14:07:05.862Z,1.00
2022-11-04T14:09:35.024Z,0.80
2022-11-04T14:12:11.955Z,0.80
2022-11-04T14:14:43.359Z,1.20
2022-11-04T14:17:35.883Z,1.00
2022-11-04T14:20:07.186Z,1.05
2022-11-04T14:22:49.263Z,0.70
2022-11-04T14:25:27.556Z,0.70
2022-11-04T14:28:00.340Z,0.60
2022-11-04T14:30:47.230Z,0.57
2022-11-04T14:33:36.610Z,0.60
2022-11-04T14:36:22.745Z,0.77
2022-11-04T14:39:01.694Z,0.83
2022-11-04T14:41:29.298Z,1.35
2022-11-04T14:43:59.169Z,1.00
2022-11-04T14:46:29.524Z,0.90
2022-11-04T14:48:58.978Z,1.27
2022-11-04T14:51:32.076Z,1.42
2022-11-04T14:54:12.151Z,1.00
2022-11-04T14:56:39.898Z,0.90
2022-11-04T14:59:08.089Z,0.90
2022-11-04T15:01:39.870Z,1.08
2022-11-04T15:04:22.401Z,1.00
2022-11-04T15:07:03.113Z,1.00
2022-11-04T15:09:36.818Z,0.60
2022-11-04T15:12:31.216Z,0.80
2022-11-04T15:14:59.295Z,1.00
2022-11-04T15:17:29.725Z,0.80
2022-11-04T15:19:58.794Z,0.50
2022-11-04T15:22:26.517Z,0.93
2022-11-04T15:24:54.321Z,0.60
2022-11-04T15:27:26.911Z,0.90
2022-11-04T15:29:55.997Z,0.70
2022-11-04T15:32:23.735Z,0.50
2022-11-04T15:34:51.518Z,0.70
2022-11-04T15:37:19.384Z,0.70
2022-11-04T15:39:48.688Z,0.90
2022-11-04T15:42:40.834Z,0.90
2022-11-04T15:45:38.326Z,1.00
2022-11-04T15:48:39.120Z,1.03
2022-11-04T15:51:26.073Z,0.97
2022-11-04T15:54:04.435Z,1.30
2022-11-04T15:56:40.537Z,0.80
2022-11-04T15:59:10.605Z,1.10
2022-11-04T16:01:48.049Z,0.93
2022-11-04T16:04:16.617Z,0.93
2022-11-04T16:06:45.262Z,1.00
2022-11-04T16:09:24.004Z,0.90
2022-11-04T16:12:16.579Z,1.10
2022-11-04T16:14:52.017Z,1.90
2022-11-04T16:17:20.376Z,1.60
2022-11-04T16:19:49.517Z,1.70
2022-11-04T16:22:45.960Z,2.00
2022-11-04T16:25:21.147Z,2.23
2022-11-04T16:27:48.968Z,2.50
2022-11-04T16:30:20.988Z,2.60
2022-11-04T16:32:49.688Z,2.83
2022-11-04T16:35:22.985Z,3.07
2022-11-04T16:37:51.966Z,4.60
2022-11-04T16:40:20.672Z,4.27
2022-11-04T16:42:48.792Z,4.90
2022-11-04T16:45:30.845Z,4.20
2022-11-04T16:48:03.662Z,4.60
2022-11-04T16:50:33.151Z,3.50
2022-11-04T16:53:00.930Z,2.67
2022-11-04T16:55:28.772Z,2.23
2022-11-04T16:58:00.931Z,1.90
2022-11-04T17:00:28.824Z,1.90
2022-11-04T17:02:56.979Z,2.03
2022-11-04T17:05:24.827Z,2.10
2022-11-04T17:07:55.444Z,2.53
2022-11-04T17:10:26.496Z,2.40
2022-11-04T17:12:54.399Z,1.90
2022-11-04T17:15:22.250Z,1.73
2022-11-04T17:17:50.100Z,1.70
2022-11-04T17:20:18.738Z,1.87
2022-11-04T17:22:47.906Z,3.43
2022-11-04T17:25:20.981Z,3.23
2022-11-04T17:27:49.463Z,2.33
2022-11-04T17:30:18.164Z,2.30
2022-11-04T17:32:46.303Z,1.70
2022-11-04T17:35:14.096Z,2.27
2022-11-04T17:37:42.051Z,2.03
2022-11-04T17:40:13.208Z,2.10
2022-11-04T17:42:59.432Z,1.90
2022-11-04T17:45:27.215Z,1.67
2022-11-04T17:47:55.041Z,1.57
2022-11-04T17:50:23.050Z,1.80
2022-11-04T17:52:50.824Z,2.07
2022-11-04T17:55:23.164Z,2.00
2022-11-04T17:57:54.045Z,1.53
2022-11-04T18:00:25.450Z,1.70
2022-11-04T18:02:53.335Z,1.33
2022-11-04T18:05:21.521Z,1.20
2022-11-04T18:07:49.261Z,0.97
2022-11-04T18:10:17.082Z,1.60
2022-11-04T18:12:45.054Z,0.80
2022-11-04T18:15:13.668Z,0.90
2022-11-04T18:17:42.139Z,0.90
2022-11-04T18:20:14.187Z,0.83
2022-11-04T18:22:42.290Z,0.93
2022-11-04T18:25:10.879Z,0.87
2022-11-04T18:27:38.750Z,0.77
2022-11-04T18:30:11.945Z,0.70
2022-11-04T18:32:39.821Z,0.80
2022-11-04T18:35:07.978Z,0.93
2022-11-04T18:37:35.751Z,0.80
2022-11-04T18:40:03.607Z,0.93
2022-11-04T18:42:31.418Z,0.80
2022-11-04T18:44:59.132Z,0.60
2022-11-04T18:47:26.988Z,0.80
2022-11-04T18:49:54.883Z,1.30
2022-11-04T18:52:22.875Z,1.40
2022-11-04T18:54:50.716Z,1.63
2022-11-04T18:57:18.596Z,1.63
2022-11-04T18:59:46.942Z,2.20
2022-11-04T19:02:21.440Z,3.83
2022-11-04T19:04:49.355Z,3.63
2022-11-04T19:07:17.206Z,3.10
2022-11-04T19:09:47.036Z,2.10
2022-11-04T19:12:34.483Z,2.10
2022-11-04T19:15:02.378Z,1.50
2022-11-04T19:17:30.194Z,1.40
2022-11-04T19:19:57.982Z,1.27
2022-11-04T19:22:25.765Z,1.20
2022-11-04T19:24:54.211Z,1.30
2022-11-04T19:27:24.058Z,1.40
2022-11-04T19:29:52.521Z,2.80
2022-11-04T19:32:20.393Z,2.67
2022-11-04T19:34:48.315Z,2.30
2022-11-04T19:37:16.193Z,2.40
2022-11-04T19:39:44.117Z,1.87
2022-11-04T19:42:31.220Z,1.50
2022-11-04T19:44:59.116Z,0.60
2022-11-04T19:47:31.898Z,0.80
2022-11-04T19:49:59.692Z,0.70
2022-11-04T19:52:27.477Z,1.00
2022-11-04T19:54:55.773Z,0.50
2022-11-04T19:57:23.678Z,0.40
2022-11-04T19:59:53.417Z,0.70
2022-11-04T20:02:21.827Z,1.30
2022-11-04T20:04:51.223Z,2.60
2022-11-04T20:07:19.043Z,2.30
2022-11-04T20:09:46.902Z,0.80
2022-11-04T20:12:33.515Z,0.50
2022-11-04T20:15:01.471Z,0.50
2022-11-04T20:17:29.548Z,0.40
2022-11-04T20:19:57.590Z,0.37
2022-11-04T20:22:33.142Z,0.70
2022-11-04T20:25:01.085Z,1.10
2022-11-04T20:27:28.922Z,1.30
2022-11-04T20:29:56.948Z,0.90
2022-11-04T20:32:24.827Z,0.83
2022-11-04T20:34:52.632Z,1.00
2022-11-04T20:40:10.671Z,0.90
2022-11-04T20:42:38.579Z,0.70
2022-11-04T20:45:06.898Z,0.90
2022-11-04T20:47:34.807Z,1.23
2022-11-04T20:50:02.590Z,1.20
2022-11-04T20:52:30.642Z,1.40
2022-11-04T20:54:58.498Z,1.70
2022-11-04T20:57:26.365Z,1.60
2022-11-04T20:59:54.591Z,1.50
2022-11-04T21:02:24.107Z,1.67
2022-11-04T21:04:52.985Z,2.07
2022-11-04T21:07:21.228Z,1.90
2022-11-04T21:09:52.238Z,2.30
2022-11-04T21:12:20.788Z,2.27
2022-11-04T21:14:51.667Z,2.43
2022-11-04T21:17:19.815Z,2.33
2022-11-04T21:19:47.746Z,2.50
2022-11-04T21:22:15.598Z,2.20
2022-11-04T21:24:43.426Z,2.57
2022-11-04T21:27:11.274Z,2.33
2022-11-04T21:29:39.128Z,2.23
2022-11-04T21:32:07.365Z,1.87
2022-11-04T21:34:35.163Z,2.50
2022-11-04T21:37:02.911Z,2.40
2022-11-04T21:39:30.873Z,2.30
2022-11-04T21:41:58.698Z,2.40
2022-11-04T21:44:26.545Z,2.30
2022-11-04T21:46:54.847Z,2.90
2022-11-04T21:49:22.710Z,2.67
2022-11-04T21:51:50.581Z,2.53
2022-11-04T21:54:18.746Z,1.90
2022-11-04T21:56:47.780Z,2.00
2022-11-04T21:59:18.523Z,1.80
2022-11-04T22:01:47.026Z,1.70
2022-11-04T22:04:14.984Z,1.70
2022-11-04T22:06:42.808Z,1.53
2022-11-04T22:09:10.622Z,1.50
2022-11-04T22:11:40.516Z,2.50
2022-11-04T22:14:09.892Z,4.63
2022-11-04T22:16:39.763Z,2.37
2022-11-04T22:19:09.289Z,1.37
2022-11-04T22:21:39.975Z,1.57
2022-11-04T22:24:08.102Z,1.20
2022-11-04T22:26:36.016Z,1.40
2022-11-04T22:29:03.805Z,1.10
2022-11-04T22:31:36.291Z,1.10
2022-11-04T22:34:06.133Z,1.20
2022-11-04T22:36:34.221Z,1.20
2022-11-04T22:39:02.093Z,1.07
2022-11-04T22:41:32.164Z,1.00
2022-11-04T22:44:00.309Z,0.93
2022-11-04T22:46:29.793Z,2.20
2022-11-04T22:48:57.668Z,0.70
2022-11-04T22:51:25.516Z,0.83
2022-11-04T22:53:58.941Z,1.00
2022-11-04T22:56:28.354Z,0.90
2022-11-04T22:58:56.385Z,1.07
2022-11-04T23:01:24.301Z,1.60
2022-11-04T23:03:53.150Z,1.00
2022-11-04T23:06:21.055Z,0.77
2022-11-04T23:08:49.319Z,0.70
2022-11-04T23:11:37.752Z,0.90
2022-11-04T23:14:24.638Z,0.80
2022-11-04T23:17:14.215Z,1.00
2022-11-04T23:19:42.602Z,1.03
2022-11-04T23:22:48.666Z,1.10
2022-11-04T23:25:16.455Z,1.60
2022-11-04T23:28:07.516Z,1.10
2022-11-04T23:30:37.134Z,1.20
2022-11-04T23:33:07.036Z,1.10
2022-11-04T23:36:01.427Z,1.40
2022-11-04T23:38:32.532Z,1.40
2022-11-04T23:41:20.248Z,1.20
2022-11-04T23:43:48.119Z,1.50
2022-11-04T23:46:39.388Z,1.80
2022-11-04T23:49:47.498Z,1.60
2022-11-04T23:52:41.666Z,1.50
2022-11-04T23:55:28.735Z,1.70
2022-11-04T23:58:14.995Z,1.77
